Time;durP1;ratioP1;P1;durP2;ratioP2;P2;SDS_P1;SDS_P2;PMS_P1;PMS_P2;Temp;Humidity;BMP_temperature;BMP_pressure;BME280_temperature;BME280_humidity;BME280_pressure;Samples;Min_cycle;Max_cycle;Signal;HPM_P1;HPM_P2
2021/04/05 00:02:13;;;;;;;8.10;4.50;;;;;;;7.59;100.00;97625.22;5097598;28;20214;-68
2021/04/05 00:04:39;;;;;;;13.40;4.57;;;;;;;7.60;100.00;97615.84;5114576;28;20224;-68
2021/04/05 00:07:06;;;;;;;11.43;5.23;;;;;;;7.47;100.00;97608.63;5114954;28;20218;-68
2021/04/05 00:09:32;;;;;;;9.67;4.83;;;;;;;7.48;100.00;97602.81;5114762;28;20267;-69
2021/04/05 00:11:59;;;;;;;10.73;5.23;;;;;;;7.49;100.00;97607.19;5113181;28;20290;-68
2021/04/05 00:14:26;;;;;;;10.87;4.87;;;;;;;7.51;100.00;97606.84;5112363;28;20200;-69
2021/04/05 00:16:53;;;;;;;9.33;4.80;;;;;;;7.51;100.00;97607.66;5113349;28;20256;-67
2021/04/05 00:19:20;;;;;;;11.67;4.60;;;;;;;7.47;100.00;97601.22;5114075;28;20255;-68
2021/04/05 00:21:46;;;;;;;10.20;4.57;;;;;;;7.15;100.00;97597.13;5114511;28;20203;-68
2021/04/05 00:24:12;;;;;;;10.27;4.77;;;;;;;7.18;100.00;97603.91;5112320;28;20218;-69
2021/04/05 00:26:38;;;;;;;11.73;5.07;;;;;;;7.17;100.00;97619.56;5113146;28;20204;-69
2021/04/05 00:29:04;;;;;;;10.67;5.30;;;;;;;7.45;100.00;97610.91;5112735;28;20224;-69
2021/04/05 00:31:30;;;;;;;12.53;5.53;;;;;;;7.43;100.00;97605.75;5113070;28;20239;-69
2021/04/05 00:33:56;;;;;;;11.30;5.13;;;;;;;7.30;100.00;97604.03;5112363;28;20223;-68
2021/04/05 00:36:22;;;;;;;8.10;4.70;;;;;;;7.18;100.00;97593.75;5114264;28;20740;-68
2021/04/05 00:38:48;;;;;;;10.00;4.93;;;;;;;7.31;100.00;97596.59;5094674;28;20230;-68
2021/04/05 00:41:16;;;;;;;12.83;5.40;;;;;;;7.35;100.00;97598.38;5112799;28;20196;-68
2021/04/05 00:43:47;;;;;;;12.97;5.17;;;;;;;7.12;100.00;97599.75;5112027;28;20669;-68
2021/04/05 00:46:20;;;;;;;12.80;5.03;;;;;;;7.05;100.00;97594.78;5112591;28;20226;-69
2021/04/05 00:48:47;;;;;;;10.03;5.10;;;;;;;7.22;100.00;97577.44;5112456;28;20255;-68
2021/04/05 00:51:16;;;;;;;9.17;4.80;;;;;;;7.34;100.00;97558.31;5094685;28;20231;-68
2021/04/05 00:53:44;;;;;;;11.27;5.03;;;;;;;7.15;100.00;97550.50;5111764;28;20250;-68
2021/04/05 00:56:13;;;;;;;12.83;4.90;;;;;;;7.32;100.00;97557.06;5094887;28;20200;-68
2021/04/05 00:58:40;;;;;;;8.53;4.90;;;;;;;7.33;100.00;97556.72;5112688;28;20311;-69
2021/04/05 01:34:04;;;;;;;11.50;5.00;;;;;;;6.56;100.00;97504.09;5171419;27;20491;-70
2021/04/05 01:36:30;;;;;;;10.53;4.87;;;;;;;6.56;100.00;97498.63;5171878;27;20293;-70
2021/04/05 01:38:56;;;;;;;11.73;4.97;;;;;;;6.53;100.00;97494.59;5172413;27;20226;-70
2021/04/05 01:41:31;;;;;;;13.47;5.40;;;;;;;6.69;100.00;97503.09;5171884;27;20233;-70
2021/04/05 01:43:59;;;;;;;6.83;4.63;;;;;;;6.58;100.00;97488.13;5171579;27;20233;-69
2021/04/05 01:46:28;;;;;;;13.67;5.67;;;;;;;6.69;100.00;97483.91;5153353;27;20480;-70
2021/04/05 01:49:00;;;;;;;10.23;5.00;;;;;;;6.85;100.00;97480.28;5152472;27;20245;-69
2021/04/05 01:51:27;;;;;;;11.37;5.53;;;;;;;6.46;100.00;97486.06;5171780;27;20214;-70
2021/04/05 01:53:55;;;;;;;9.60;4.43;;;;;;;6.51;100.00;97485.91;5171141;27;20260;-69
2021/04/05 01:56:22;;;;;;;10.57;4.23;;;;;;;5.85;100.00;97487.31;5171276;27;20858;-69
2021/04/05 01:58:54;;;;;;;11.20;4.50;;;;;;;5.91;100.00;97480.50;5171702;27;20313;-69
2021/04/05 02:01:23;;;;;;;9.27;4.50;;;;;;;5.67;100.00;97484.84;5171184;27;20206;-69
2021/04/05 02:03:51;;;;;;;10.33;4.73;;;;;;;5.57;100.00;97488.69;5171191;27;20267;-69
2021/04/05 02:06:23;;;;;;;13.37;4.70;;;;;;;5.61;100.00;97470.53;5171280;27;20222;-69
2021/04/05 02:08:50;;;;;;;12.20;4.77;;;;;;;5.70;100.00;97471.31;5170955;27;20261;-69
2021/04/05 02:11:19;;;;;;;8.83;4.83;;;;;;;5.95;100.00;97473.28;5170719;27;20297;-69
2021/04/05 02:13:48;;;;;;;8.03;4.40;;;;;;;6.13;100.00;97463.91;5170686;27;20316;-69
2021/04/05 02:16:16;;;;;;;11.67;5.20;;;;;;;5.64;100.00;97467.13;5172001;27;20754;-69
2021/04/05 02:18:43;;;;;;;11.77;5.30;;;;;;;5.58;100.00;97457.50;5172128;27;20702;-68
2021/04/05 02:21:14;;;;;;;7.80;4.93;;;;;;;5.64;100.00;97456.19;5172682;27;20300;-68
2021/04/05 02:23:42;;;;;;;13.30;4.70;;;;;;;5.49;100.00;97450.41;5170581;27;20663;-69
2021/04/05 02:26:17;;;;;;;14.67;5.37;;;;;;;5.53;100.00;97454.09;5170762;27;20198;-68
2021/04/05 02:28:46;;;;;;;11.37;5.80;;;;;;;5.82;100.00;97451.53;5170228;27;20583;-70
2021/04/05 02:31:16;;;;;;;10.10;5.20;;;;;;;5.58;100.00;97438.34;5170475;27;20274;-69
2021/04/05 02:33:48;;;;;;;11.00;4.90;;;;;;;5.34;100.00;97440.72;5169998;27;20699;-69
2021/04/05 02:36:16;;;;;;;10.23;5.10;;;;;;;5.52;100.00;97431.41;5170497;27;20679;-68
2021/04/05 02:38:48;;;;;;;11.37;5.40;;;;;;;5.44;100.00;97418.50;5170338;27;20226;-69
2021/04/05 02:41:16;;;;;;;11.70;5.03;;;;;;;5.07;100.00;97419.94;5165263;27;20282;-69
2021/04/05 02:43:43;;;;;;;9.93;4.63;;;;;;;4.88;100.00;97410.41;5145537;27;20304;-68
2021/04/05 02:46:23;;;;;;;11.83;5.20;;;;;;;5.26;100.00;97410.63;5135560;27;20242;-67
2021/04/05 02:48:51;;;;;;;13.60;5.13;;;;;;;4.98;100.00;97410.13;5135323;27;20310;-70
2021/04/05 02:51:18;;;;;;;8.90;5.07;;;;;;;5.11;100.00;97409.97;5135248;27;20294;-69
2021/04/05 02:53:54;;;;;;;12.00;5.53;;;;;;;5.19;100.00;97405.63;5135601;27;20295;-69
2021/04/05 02:56:21;;;;;;;12.07;5.57;;;;;;;4.89;100.00;97401.09;5117501;27;20237;-68
2021/04/05 02:58:49;;;;;;;10.57;4.70;;;;;;;4.88;100.00;97391.28;5117357;27;20254;-68
2021/04/05 03:01:17;;;;;;;13.50;5.37;;;;;;;5.08;100.00;97393.41;5135142;27;20302;-68
2021/04/05 03:03:45;;;;;;;12.50;5.30;;;;;;;5.02;100.00;97383.72;5134875;27;20263;-69
2021/04/05 03:06:16;;;;;;;8.00;4.67;;;;;;;4.93;100.00;97381.00;5135414;27;20210;-69
2021/04/05 03:08:43;;;;;;;10.93;5.07;;;;;;;5.21;100.00;97383.44;5134881;27;20313;-69
2021/04/05 03:11:12;;;;;;;12.00;5.30;;;;;;;4.59;100.00;97377.38;5134765;27;20298;-69
2021/04/05 03:13:39;;;;;;;12.90;5.53;;;;;;;4.79;100.00;97379.53;5134787;27;20276;-68
2021/04/05 03:16:10;;;;;;;10.30;5.07;;;;;;;5.09;100.00;97368.47;5135129;27;20681;-70
2021/04/05 03:18:38;;;;;;;10.27;5.03;;;;;;;4.86;100.00;97366.19;5135025;27;20345;-69
2021/04/05 03:21:09;;;;;;;11.63;5.33;;;;;;;4.70;100.00;97365.84;5116874;27;20203;-68
2021/04/05 03:23:36;;;;;;;9.73;4.90;;;;;;;4.61;100.00;97361.47;5134868;27;20223;-69
2021/04/05 03:26:03;;;;;;;9.57;5.00;;;;;;;4.62;100.00;97355.69;5135067;27;20298;-68
2021/04/05 03:28:29;;;;;;;10.57;4.77;;;;;;;4.60;100.00;97352.47;5134531;27;20223;-68
2021/04/05 03:31:01;;;;;;;8.93;5.10;;;;;;;4.61;100.00;97356.84;5153549;27;20255;-68
2021/04/05 03:33:38;;;;;;;10.97;5.23;;;;;;;4.47;100.00;97338.97;5155201;27;20387;-68
2021/04/05 03:36:11;;;;;;;9.37;4.80;;;;;;;4.60;100.00;97332.56;5155530;27;20625;-69
2021/04/05 03:38:37;;;;;;;10.50;5.40;;;;;;;4.93;100.00;97318.13;5155571;27;20223;-68
2021/04/05 03:41:10;;;;;;;15.13;5.33;;;;;;;4.88;100.00;97331.16;5151652;27;20281;-69
2021/04/05 03:43:40;;;;;;;10.33;4.70;;;;;;;4.49;100.00;97325.78;5134281;27;20226;-69
2021/04/05 03:46:16;;;;;;;10.10;5.30;;;;;;;4.30;100.00;97326.06;5116465;27;20230;-69
2021/04/05 03:49:06;;;;;;;10.00;5.17;;;;;;;4.35;100.00;97316.91;5116589;27;20254;-68
2021/04/05 03:51:37;;;;;;;12.27;5.33;;;;;;;4.36;100.00;97313.84;5135451;27;20226;-68
2021/04/05 03:54:07;;;;;;;11.90;4.60;;;;;;;4.16;100.00;97308.19;5142300;27;20242;-68
2021/04/05 03:56:40;;;;;;;12.50;4.97;;;;;;;4.29;100.00;97299.06;5150880;27;20206;-68
2021/04/05 03:59:14;;;;;;;10.43;5.50;;;;;;;4.15;100.00;97293.72;5152357;27;20305;-68
2021/04/05 04:01:47;;;;;;;11.23;4.83;;;;;;;4.16;100.00;97278.16;5151441;27;20231;-69
2021/04/05 04:04:19;;;;;;;12.17;5.33;;;;;;;4.21;100.00;97275.28;5155037;27;20223;-68
2021/04/05 04:07:01;;;;;;;7.03;4.67;;;;;;;4.06;100.00;97269.13;5153349;27;20242;-68
2021/04/05 04:09:30;;;;;;;12.87;5.20;;;;;;;3.96;100.00;97280.31;5146837;27;20321;-68
2021/04/05 04:11:57;;;;;;;16.20;5.17;;;;;;;3.84;100.00;97273.88;5134177;27;20302;-68
2021/04/05 04:14:24;;;;;;;11.10;5.43;;;;;;;4.02;100.00;97257.25;5136093;27;20238;-68
2021/04/05 04:16:52;;;;;;;14.80;5.97;;;;;;;4.13;100.00;97253.09;5138164;27;20226;-69
2021/04/05 04:19:19;;;;;;;10.30;5.27;;;;;;;3.93;100.00;97261.06;5137950;27;20257;-69
2021/04/05 04:21:48;;;;;;;8.93;5.30;;;;;;;4.33;100.00;97251.69;5138055;27;20307;-67
2021/04/05 04:24:15;;;;;;;8.47;5.40;;;;;;;3.86;100.00;97253.34;5137041;27;20210;-69
2021/04/05 04:26:42;;;;;;;8.00;5.30;;;;;;;3.90;100.00;97248.88;5137367;27;20668;-69
2021/04/05 04:29:14;;;;;;;9.43;5.77;;;;;;;3.59;100.00;97241.81;5141023;27;20695;-69
2021/04/05 04:31:41;;;;;;;9.27;5.07;;;;;;;3.72;100.00;97236.25;5158328;27;20842;-67
2021/04/05 04:34:07;;;;;;;7.50;4.90;;;;;;;3.54;100.00;97240.03;5157989;27;20325;-68
2021/04/05 04:36:34;;;;;;;11.13;5.00;;;;;;;3.82;100.00;97240.63;5158072;27;20222;-69
2021/04/05 04:39:01;;;;;;;9.90;5.33;;;;;;;3.78;100.00;97245.91;5157251;27;20226;-69
2021/04/05 04:41:28;;;;;;;10.03;5.10;;;;;;;3.77;100.00;97254.41;5132258;27;20307;-68
2021/04/05 04:43:58;;;;;;;10.30;5.27;;;;;;;3.57;100.00;97261.25;5136171;27;20252;-70
2021/04/05 04:46:24;;;;;;;13.53;5.67;;;;;;;3.96;100.00;97258.50;5119706;27;20297;-70
2021/04/05 04:48:58;;;;;;;9.57;5.50;;;;;;;3.65;100.00;97263.19;5137711;27;20250;-69
2021/04/05 04:51:24;;;;;;;9.60;6.17;;;;;;;3.73;100.00;97256.16;5118509;27;20249;-69
2021/04/05 04:53:53;;;;;;;10.40;5.50;;;;;;;3.74;100.00;97255.84;5137190;27;20222;-69
2021/04/05 04:56:20;;;;;;;11.63;5.73;;;;;;;4.32;100.00;97265.66;5136830;27;20203;-68
2021/04/05 04:58:46;;;;;;;15.07;6.20;;;;;;;4.18;100.00;97257.59;5136998;27;20257;-68
2021/04/05 05:01:13;;;;;;;9.57;6.07;;;;;;;4.19;100.00;97255.66;5137154;27;20207;-68
2021/04/05 05:03:43;;;;;;;13.80;6.30;;;;;;;4.40;100.00;97257.47;5136319;27;20228;-68
2021/04/05 05:06:12;;;;;;;13.23;5.93;;;;;;;4.39;100.00;97246.88;5136829;27;20258;-68
2021/04/05 05:08:39;;;;;;;12.43;5.53;;;;;;;4.48;100.00;97237.56;5136768;27;20316;-68
2021/04/05 05:11:10;;;;;;;12.10;5.37;;;;;;;4.32;100.00;97221.97;5137873;27;20203;-68
2021/04/05 05:13:37;;;;;;;12.67;6.17;;;;;;;4.32;100.00;97219.25;5134178;27;20614;-69
2021/04/05 05:16:07;;;;;;;9.47;5.73;;;;;;;4.55;100.00;97212.50;5134414;27;20297;-68
2021/04/05 05:18:34;;;;;;;10.93;5.63;;;;;;;4.31;100.00;97223.06;5134298;27;20310;-69
2021/04/05 05:21:04;;;;;;;11.17;5.30;;;;;;;4.29;100.00;97219.88;5133980;27;20575;-69
2021/04/05 05:23:33;;;;;;;9.43;5.60;;;;;;;4.28;100.00;97221.00;5115652;28;20702;-68
2021/04/05 05:26:02;;;;;;;8.53;5.63;;;;;;;4.74;100.00;97221.19;5134309;27;20211;-68
2021/04/05 05:28:31;;;;;;;10.30;6.07;;;;;;;4.51;100.00;97217.00;5134550;27;20223;-68
2021/04/05 05:30:58;;;;;;;15.80;6.20;;;;;;;4.61;100.00;97203.03;5153934;27;20256;-69
2021/04/05 05:33:24;;;;;;;9.90;5.47;;;;;;;4.55;100.00;97194.19;5154699;27;20325;-69
2021/04/05 05:35:52;;;;;;;9.93;5.30;;;;;;;4.84;100.00;97201.72;5154720;27;20240;-69
2021/04/05 05:38:21;;;;;;;11.30;5.57;;;;;;;4.50;100.00;97201.75;5154893;27;20222;-68
2021/04/05 05:40:48;;;;;;;10.43;5.80;;;;;;;4.57;100.00;97202.88;5153316;27;20202;-69
2021/04/05 05:43:14;;;;;;;9.93;6.07;;;;;;;4.76;100.00;97197.06;5133175;27;20287;-70
2021/04/05 05:45:55;;;;;;;9.73;6.03;;;;;;;5.81;100.00;97193.38;5133713;28;20672;-68
2021/04/05 05:48:28;;;;;;;11.37;5.70;;;;;;;5.83;100.00;97182.94;5134967;28;20257;-68
2021/04/05 05:51:16;;;;;;;13.13;5.70;;;;;;;7.11;100.00;97175.66;5135955;28;20242;-68
2021/04/05 05:53:57;;;;;;;9.90;5.53;;;;;;;7.41;100.00;97151.63;5135801;27;20317;-68
2021/04/05 05:57:02;;;;;;;9.60;5.80;;;;;;;9.41;100.00;97140.38;5134311;28;20298;-68
2021/04/05 05:59:43;;;;;;;8.10;4.73;;;;;;;9.79;100.00;97135.06;5133844;27;20255;-69
2021/04/05 06:02:29;;;;;;;9.67;5.20;;;;;;;10.13;100.00;97121.34;5134267;28;20724;-69
2021/04/05 06:05:13;;;;;;;8.97;4.70;;;;;;;12.85;100.00;97113.16;5133385;27;20660;-68
2021/04/05 06:08:07;;;;;;;9.53;5.07;;;;;;;11.84;100.00;97119.59;5132997;28;20268;-68
2021/04/05 06:10:39;;;;;;;8.03;4.83;;;;;;;13.21;100.00;97120.72;5133323;27;20286;-68
2021/04/05 06:13:48;;;;;;;8.07;4.93;;;;;;;12.05;100.00;97124.69;5133510;27;20223;-68
2021/04/05 06:16:36;;;;;;;8.57;4.33;;;;;;;10.50;100.00;97129.22;5133625;28;20294;-69
2021/04/05 06:19:15;;;;;;;7.47;4.70;;;;;;;9.51;100.00;97124.13;5134489;27;20314;-68
2021/04/05 06:21:50;;;;;;;9.13;5.10;;;;;;;9.09;100.00;97125.75;5137468;27;20241;-69
2021/04/05 06:24:41;;;;;;;10.97;5.17;;;;;;;8.25;100.00;97115.13;5136687;27;20771;-69
2021/04/05 06:27:40;;;;;;;8.07;5.00;;;;;;;9.23;100.00;97115.16;5137190;27;20227;-68
2021/04/05 06:30:17;;;;;;;9.17;5.00;;;;;;;11.29;100.00;97103.63;5148613;27;20298;-69
2021/04/05 06:33:11;;;;;;;10.60;4.77;;;;;;;12.49;100.00;97095.28;5157825;27;20711;-69
2021/04/05 06:35:58;;;;;;;5.97;4.70;;;;;;;14.65;100.00;97079.50;5155916;27;20239;-70
2021/04/05 06:38:30;;;;;;;7.83;4.90;;;;;;;13.60;100.00;97077.56;5139011;27;20319;-70
2021/04/05 06:41:05;;;;;;;6.77;4.70;;;;;;;13.13;100.00;97080.28;5169026;27;20189;-69
2021/04/05 06:44:08;;;;;;;12.23;5.07;;;;;;;12.93;100.00;97074.09;5148858;27;20198;-69
2021/04/05 06:47:00;;;;;;;6.43;5.00;;;;;;;12.26;100.00;97072.47;5161972;27;20194;-70
2021/04/05 06:50:01;;;;;;;8.03;4.57;;;;;;;12.96;100.00;97069.75;5156437;27;20325;-69
2021/04/05 06:52:42;;;;;;;8.63;5.20;;;;;;;12.31;100.00;97063.03;5037323;28;20198;-70
2021/04/05 06:55:14;;;;;;;6.53;5.10;;;;;;;11.75;100.00;97060.25;5127292;27;20208;-70
2021/04/05 06:58:06;;;;;;;6.50;4.90;;;;;;;12.16;100.00;97046.25;5156683;27;20237;-69
2021/04/05 07:00:58;;;;;;;5.80;4.73;;;;;;;12.17;100.00;97025.69;5136225;27;20207;-70
2021/04/05 07:03:59;;;;;;;9.60;4.90;;;;;;;12.16;100.00;97021.34;5142837;27;20226;-70
2021/04/05 07:06:46;;;;;;;7.80;4.93;;;;;;;12.07;100.00;97029.13;5149315;27;20256;-71
2021/04/05 07:09:24;;;;;;;12.83;5.33;;;;;;;11.71;100.00;97021.50;5148437;27;20226;-70
2021/04/05 07:12:09;;;;;;;7.07;4.93;;;;;;;11.50;100.00;97023.06;5155431;27;20237;-69
2021/04/05 07:15:04;;;;;;;11.73;5.17;;;;;;;10.97;100.00;97033.22;5156521;27;20308;-70
2021/04/05 07:17:46;;;;;;;6.43;4.60;;;;;;;10.91;100.00;97034.69;5147274;27;20254;-71
2021/04/05 07:20:20;;;;;;;9.23;5.30;;;;;;;10.24;100.00;97029.81;5137791;27;20247;-69
2021/04/05 07:23:04;;;;;;;9.50;4.33;;;;;;;10.66;100.00;97025.94;5136454;27;20835;-69
2021/04/05 07:25:48;;;;;;;8.50;4.60;;;;;;;10.86;100.00;97030.25;5136926;27;20664;-69
2021/04/05 07:28:45;;;;;;;6.73;4.70;;;;;;;10.36;100.00;97015.88;5117053;27;20322;-70
2021/04/05 07:31:23;;;;;;;6.47;4.17;;;;;;;9.74;100.00;97011.34;5134723;27;20744;-68
2021/04/05 07:33:57;;;;;;;6.90;4.50;;;;;;;9.96;100.00;97002.41;5136484;27;20207;-66
2021/04/05 07:36:40;;;;;;;11.47;4.13;;;;;;;10.10;100.00;97000.78;5136973;27;20747;-66
2021/04/05 07:39:33;;;;;;;7.73;4.50;;;;;;;9.61;100.00;96991.41;5137673;27;20261;-70
2021/04/05 07:42:20;;;;;;;7.90;4.30;;;;;;;10.40;100.00;96994.69;5145632;27;20277;-68
2021/04/05 07:45:10;;;;;;;9.67;4.53;;;;;;;10.75;100.00;97001.66;5153818;27;20297;-70
2021/04/05 07:47:52;;;;;;;11.07;5.03;;;;;;;10.62;100.00;96996.69;5154807;27;20994;-69
2021/04/05 07:50:34;;;;;;;6.87;4.37;;;;;;;10.79;100.00;96998.97;5135807;27;20297;-69
2021/04/05 07:53:09;;;;;;;6.47;4.33;;;;;;;11.30;100.00;96983.69;5133431;27;20199;-69
2021/04/05 07:55:36;;;;;;;6.87;4.47;;;;;;;11.90;100.00;96982.66;5133936;27;20212;-69
2021/04/05 07:58:14;;;;;;;10.07;4.60;;;;;;;12.62;100.00;96968.53;5133963;27;20344;-69
2021/04/05 08:00:52;;;;;;;7.83;4.43;;;;;;;12.90;100.00;96957.78;5133589;27;20290;-68
2021/04/05 08:03:43;;;;;;;8.03;4.33;;;;;;;13.72;100.00;96952.50;5133280;27;20318;-68
2021/04/05 08:06:13;;;;;;;7.20;4.20;;;;;;;13.78;100.00;96956.50;5133990;27;20272;-70
2021/04/05 08:08:57;;;;;;;9.57;4.30;;;;;;;14.53;100.00;96949.34;5133448;27;20262;-68
2021/04/05 08:11:39;;;;;;;6.70;4.13;;;;;;;15.28;96.65;96940.75;5133366;27;20581;-69
2021/04/05 08:14:10;;;;;;;8.07;4.17;;;;;;;15.49;93.25;96943.53;5114582;27;20294;-69
2021/04/05 08:17:04;;;;;;;6.82;4.40;;;;;;;15.44;92.68;96932.81;5133717;27;20231;-71
2021/04/05 08:19:42;;;;;;;10.20;5.07;;;;;;;15.02;91.95;96928.03;5086549;27;20776;-70
2021/04/05 08:22:26;;;;;;;6.30;4.15;;;;;;;15.21;92.64;96929.63;5133493;27;20293;-70
2021/04/05 08:25:14;;;;;;;7.43;4.10;;;;;;;15.75;89.63;96920.84;5131785;27;20210;-69
2021/04/05 08:28:10;;;;;;;7.00;4.30;;;;;;;15.94;90.13;96909.28;5131254;27;20248;-69
2021/04/05 08:30:49;;;;;;;8.32;4.40;;;;;;;15.82;85.21;96889.47;5147080;27;20278;-69
2021/04/05 08:33:27;;;;;;;8.82;4.20;;;;;;;16.55;82.89;96891.16;5151203;27;20289;-68
2021/04/05 08:36:10;;;;;;;8.07;4.30;;;;;;;16.71;77.66;96880.31;5152013;27;20208;-70
2021/04/05 08:38:49;;;;;;;8.70;4.40;;;;;;;17.14;79.78;96869.63;5151923;27;20652;-70
2021/04/05 08:41:40;;;;;;;7.20;4.32;;;;;;;17.21;75.23;96861.19;5149760;27;20282;-70
2021/04/05 08:44:31;;;;;;;8.35;4.20;;;;;;;16.55;80.00;96865.31;5153126;27;20610;-69
2021/04/05 08:46:59;;;;;;;10.30;4.60;;;;;;;16.43;86.18;96851.81;5152462;27;20663;-69
2021/04/05 08:49:28;;;;;;;8.05;4.03;;;;;;;16.01;81.32;96856.41;5153178;27;20262;-70
2021/04/05 08:52:01;;;;;;;6.28;4.32;;;;;;;16.10;87.81;96856.75;5152983;27;20289;-70
2021/04/05 08:54:29;;;;;;;8.75;4.25;;;;;;;15.13;96.87;96864.91;5152567;27;20237;-70
2021/04/05 08:57:08;;;;;;;11.20;4.25;;;;;;;15.94;91.40;96853.66;5152859;27;20688;-69
2021/04/05 09:00:07;;;;;;;11.95;4.82;;;;;;;16.28;91.22;96848.31;5152651;27;20344;-69
2021/04/05 09:02:49;;;;;;;7.78;4.38;;;;;;;17.13;86.69;96832.59;5153555;27;20285;-69
2021/04/05 09:05:26;;;;;;;12.95;4.55;;;;;;;16.81;81.33;96828.50;5153520;27;20213;-68
2021/04/05 09:08:05;;;;;;;13.93;4.38;;;;;;;17.38;84.14;96823.19;5153272;27;20318;-70
2021/04/05 09:10:44;;;;;;;9.98;4.03;;;;;;;17.27;79.87;96808.56;5151405;27;20198;-69
2021/04/05 09:13:19;;;;;;;11.48;4.13;;;;;;;16.52;82.64;96810.41;5154467;27;20202;-69
2021/04/05 09:16:22;;;;;;;14.88;5.45;;;;;;;16.08;85.58;96808.25;5161164;27;20201;-68
2021/04/05 09:19:26;;;;;;;7.45;4.18;;;;;;;16.64;84.36;96796.78;5162185;27;20620;-72
2021/04/05 09:22:04;;;;;;;6.80;3.95;;;;;;;16.86;84.23;96792.63;5160790;27;20194;-69
2021/04/05 09:24:55;;;;;;;7.55;3.85;;;;;;;16.96;76.97;96790.94;5158712;27;20241;-70
2021/04/05 09:27:39;;;;;;;11.20;4.70;;;;;;;16.65;73.16;96780.84;5164338;27;20202;-71
2021/04/05 09:30:29;;;;;;;15.23;3.83;;;;;;;16.85;82.90;96767.94;5152395;27;20237;-69
2021/04/05 09:33:32;;;;;;;11.18;3.70;;;;;;;17.13;71.91;96762.13;5151560;27;20244;-68
2021/04/05 09:36:08;;;;;;;7.88;4.43;;;;;;;17.31;71.60;96757.16;5152130;27;20228;-69
2021/04/05 09:39:03;;;;;;;8.10;4.03;;;;;;;17.05;75.08;96749.44;5151546;27;20256;-70
2021/04/05 09:42:04;;;;;;;7.70;3.70;;;;;;;17.30;78.17;96749.97;5128195;27;20732;-68
2021/04/05 09:44:39;;;;;;;7.68;3.55;;;;;;;17.13;75.15;96734.25;5151491;27;20576;-68
2021/04/05 09:47:05;;;;;;;11.32;4.00;;;;;;;16.62;79.07;96749.06;5152636;27;20206;-69
2021/04/05 09:49:40;;;;;;;10.00;3.45;;;;;;;17.17;71.96;96732.19;5151564;27;20195;-69
2021/04/05 09:52:30;;;;;;;9.70;3.50;;;;;;;17.62;69.78;96739.28;5151644;27;20240;-69
2021/04/05 09:55:04;;;;;;;8.27;4.00;;;;;;;17.42;70.13;96724.34;5147651;27;20202;-70
2021/04/05 09:57:40;;;;;;;7.50;4.25;;;;;;;16.72;69.22;96713.94;5155689;27;20328;-69
2021/04/05 10:00:20;;;;;;;14.38;4.15;;;;;;;16.56;72.38;96722.84;5155506;27;20802;-70
2021/04/05 10:03:08;;;;;;;8.90;3.50;;;;;;;16.63;66.72;96721.97;5151745;27;20992;-68
2021/04/05 10:05:41;;;;;;;10.68;3.85;;;;;;;15.90;77.19;96718.50;5155313;27;20289;-68
2021/04/05 10:08:14;;;;;;;10.50;3.77;;;;;;;16.31;82.80;96716.66;5152682;27;20837;-69
2021/04/05 10:10:44;;;;;;;9.43;3.87;;;;;;;16.88;75.14;96706.63;5155007;27;20198;-69
2021/04/05 10:13:11;;;;;;;12.87;3.40;;;;;;;16.73;72.11;96699.59;5154703;27;20195;-69
2021/04/05 10:15:37;;;;;;;8.43;3.70;;;;;;;17.16;67.36;96688.78;5155463;27;20241;-68
2021/04/05 10:18:13;;;;;;;9.50;4.30;;;;;;;16.96;68.66;96690.63;5147994;27;20313;-70
2021/04/05 10:20:40;;;;;;;7.37;3.50;;;;;;;17.56;68.61;96685.16;5153964;27;20582;-71
2021/04/05 10:23:09;;;;;;;11.70;4.00;;;;;;;17.51;66.90;96674.47;5154180;27;20474;-71
2021/04/05 10:25:36;;;;;;;7.55;3.80;;;;;;;17.75;69.12;96678.94;5154701;27;20288;-71
2021/04/05 10:28:05;;;;;;;9.95;3.47;;;;;;;17.97;65.54;96666.22;5155169;27;20302;-70
2021/04/05 10:30:34;;;;;;;11.75;3.75;;;;;;;17.67;66.83;96663.47;5154708;27;20286;-70
2021/04/05 10:33:06;;;;;;;8.60;3.50;;;;;;;17.66;66.86;96663.91;5153001;27;20574;-70
2021/04/05 10:35:40;;;;;;;9.98;3.72;;;;;;;16.97;62.48;96665.09;5155392;27;20198;-71
2021/04/05 10:38:06;;;;;;;5.60;3.42;;;;;;;17.34;64.67;96667.06;5154998;27;20238;-70
2021/04/05 10:40:37;;;;;;;8.80;3.42;;;;;;;17.44;66.44;96666.16;5154924;27;20198;-71
2021/04/05 10:43:12;;;;;;;10.32;3.10;;;;;;;17.24;64.64;96645.69;5153628;27;20249;-70
2021/04/05 10:45:41;;;;;;;6.83;3.63;;;;;;;17.00;64.85;96635.63;5151591;27;20202;-69
2021/04/05 10:48:07;;;;;;;5.67;2.77;;;;;;;17.01;63.59;96638.00;5154761;27;20223;-68
2021/04/05 10:50:45;;;;;;;11.40;3.50;;;;;;;16.52;59.14;96637.72;5153946;27;20202;-69
2021/04/05 10:53:17;;;;;;;14.90;3.33;;;;;;;16.55;57.47;96639.69;5154595;27;20588;-68
2021/04/05 10:55:56;;;;;;;8.03;3.23;;;;;;;16.49;55.33;96621.84;5155137;27;20751;-70
2021/04/05 10:58:30;;;;;;;13.03;3.37;;;;;;;16.24;58.27;96622.84;5156283;27;20626;-70
2021/04/05 11:01:00;;;;;;;6.47;3.00;;;;;;;16.52;59.67;96621.81;5154666;27;20587;-71
2021/04/05 11:03:29;;;;;;;9.27;2.90;;;;;;;16.34;57.53;96631.50;5154954;27;20678;-70
2021/04/05 11:05:59;;;;;;;11.20;3.30;;;;;;;16.50;57.96;96634.56;5157928;27;20202;-69
2021/04/05 11:08:28;;;;;;;9.83;3.63;;;;;;;16.36;60.37;96612.41;5157212;27;20222;-69
2021/04/05 11:11:12;;;;;;;8.33;3.27;;;;;;;16.32;58.76;96629.13;5157182;27;20206;-69
2021/04/05 11:13:42;;;;;;;7.47;3.10;;;;;;;16.43;59.72;96620.69;5154344;27;20233;-68
2021/04/05 11:16:11;;;;;;;12.37;3.10;;;;;;;16.45;59.59;96607.13;5156206;27;20735;-69
2021/04/05 11:18:54;;;;;;;9.47;3.00;;;;;;;16.55;63.34;96620.22;5137149;27;20230;-70
2021/04/05 11:21:26;;;;;;;8.70;2.90;;;;;;;16.36;58.19;96609.59;5154997;27;20233;-72
2021/04/05 11:23:57;;;;;;;10.27;2.83;;;;;;;16.61;60.45;96608.19;5154128;27;20276;-71
2021/04/05 11:26:30;;;;;;;7.60;3.03;;;;;;;16.47;57.23;96613.91;5154988;27;20234;-70
2021/04/05 11:28:59;;;;;;;12.07;2.93;;;;;;;16.67;58.51;96605.75;5137364;27;20222;-71
2021/04/05 11:31:32;;;;;;;10.80;3.17;;;;;;;16.79;54.48;96599.63;5154775;27;20207;-71
2021/04/05 11:34:00;;;;;;;24.07;3.17;;;;;;;16.50;52.68;96606.72;5135937;27;20245;-71
2021/04/05 11:36:53;;;;;;;13.73;2.50;;;;;;;16.29;52.88;96606.91;5153839;27;20206;-72
2021/04/05 11:39:27;;;;;;;12.63;2.57;;;;;;;15.79;53.13;96612.06;5151439;27;20222;-70
2021/04/05 11:41:55;;;;;;;13.50;2.87;;;;;;;15.97;54.34;96607.97;5154195;27;20327;-70
2021/04/05 11:44:34;;;;;;;8.87;2.50;;;;;;;15.93;52.44;96600.84;5151982;27;20214;-70
2021/04/05 11:47:01;;;;;;;14.67;3.03;;;;;;;15.92;52.68;96588.94;5154946;27;20212;-71
2021/04/05 11:49:32;;;;;;;11.43;2.77;;;;;;;15.71;52.27;96591.84;5154487;27;20230;-68
2021/04/05 11:52:15;;;;;;;7.47;2.60;;;;;;;15.41;51.64;96575.00;5154694;27;20206;-70
2021/04/05 11:54:52;;;;;;;9.77;2.37;;;;;;;15.74;51.63;96588.28;5145121;27;20226;-70
2021/04/05 11:57:32;;;;;;;14.53;3.07;;;;;;;15.87;51.18;96575.47;5154410;27;20293;-70
2021/04/05 12:00:03;;;;;;;14.00;3.23;;;;;;;15.88;50.94;96571.47;5154342;27;20213;-69
2021/04/05 12:02:44;;;;;;;6.57;2.60;;;;;;;15.73;53.21;96563.66;5143007;27;20206;-70
2021/04/05 12:05:21;;;;;;;7.33;2.83;;;;;;;15.97;51.33;96577.34;5162348;27;20214;-69
2021/04/05 12:07:55;;;;;;;7.87;2.47;;;;;;;16.11;53.96;96563.31;5164368;27;20309;-69
2021/04/05 12:10:26;;;;;;;7.67;2.63;;;;;;;16.53;54.05;96562.09;5162914;27;20266;-70
2021/04/05 12:12:55;;;;;;;8.77;3.07;;;;;;;16.12;52.64;96553.78;5150804;27;20293;-70
2021/04/05 12:15:26;;;;;;;15.93;3.10;;;;;;;15.81;56.10;96548.47;5153547;27;20203;-73
2021/04/05 12:17:54;;;;;;;11.80;3.13;;;;;;;15.93;55.79;96545.22;5152008;27;20246;-70
2021/04/05 12:20:23;;;;;;;16.97;3.00;;;;;;;16.06;53.75;96537.91;5153851;27;20270;-70
2021/04/05 12:23:01;;;;;;;11.30;2.90;;;;;;;15.87;55.45;96525.38;5153121;27;20203;-71
2021/04/05 12:25:30;;;;;;;13.83;3.17;;;;;;;15.54;60.14;96544.72;5153892;27;20620;-72
2021/04/05 12:28:05;;;;;;;8.90;3.17;;;;;;;15.72;64.28;96528.69;5153663;27;20224;-70
2021/04/05 12:30:34;;;;;;;7.17;3.10;;;;;;;15.61;61.75;96523.22;5152539;27;20230;-69
2021/04/05 12:33:04;;;;;;;12.23;3.73;;;;;;;15.54;64.60;96523.28;5146942;27;20210;-70
2021/04/05 12:35:56;;;;;;;8.90;3.07;;;;;;;15.56;66.30;96512.53;5139118;27;20281;-68
2021/04/05 12:38:27;;;;;;;11.33;3.10;;;;;;;15.58;67.97;96520.47;5149431;27;20286;-69